createdAt,value
2019-01-11T00:00:53.670Z,71.15
2019-01-11T00:03:23.271Z,71.73
2019-01-11T00:05:52.618Z,72.17
2019-01-11T00:08:21.959Z,72.79
2019-01-11T00:10:51.590Z,72.63
2019-01-11T00:13:21.182Z,72.47
2019-01-11T00:15:50.514Z,73.01
2019-01-11T00:18:20.156Z,72.64
2019-01-11T00:20:49.478Z,73.24
2019-01-11T00:23:18.795Z,73.14
2019-01-11T00:25:48.386Z,72.59
2019-01-11T00:28:17.714Z,73.36
2019-01-11T00:30:47.353Z,73.16
2019-01-11T00:33:16.939Z,73.54
2019-01-11T00:35:46.285Z,73.74
2019-01-11T00:38:16.162Z,73.64
2019-01-11T00:40:45.490Z,74.20
2019-01-11T00:43:15.125Z,73.93
2019-01-11T00:45:44.943Z,73.62
2019-01-11T00:48:14.539Z,73.60
2019-01-11T00:50:43.846Z,73.44
2019-01-11T00:53:13.209Z,73.50
2019-01-11T00:55:42.819Z,73.56
2019-01-11T00:58:12.154Z,73.86
2019-01-11T01:00:41.725Z,73.84
2019-01-11T01:03:11.363Z,73.40
2019-01-11T01:05:40.704Z,73.89
2019-01-11T01:08:10.259Z,74.07
2019-01-11T01:10:39.590Z,74.56
2019-01-11T01:13:08.922Z,74.59
2019-01-11T01:15:38.230Z,73.73
2019-01-11T01:18:07.843Z,74.00
2019-01-11T01:20:39.887Z,74.44
2019-01-11T01:23:09.231Z,74.49
2019-01-11T01:25:38.569Z,74.58
2019-01-11T01:28:08.194Z,75.24
2019-01-11T01:30:37.510Z,75.56
2019-01-11T01:33:06.919Z,75.22
2019-01-11T01:35:36.546Z,75.85
2019-01-11T01:38:06.534Z,76.02
2019-01-11T01:40:35.917Z,75.78
2019-01-11T01:43:05.232Z,75.29
2019-01-11T01:45:34.714Z,75.37
2019-01-11T01:48:04.070Z,75.75
2019-01-11T01:50:34.166Z,75.68
2019-01-11T01:53:03.513Z,74.95
2019-01-11T01:55:33.206Z,74.73
2019-01-11T01:58:03.489Z,74.78
2019-01-11T02:00:32.813Z,75.05
2019-01-11T02:03:02.531Z,74.82
2019-01-11T02:05:32.231Z,75.87
2019-01-11T02:08:01.546Z,75.49
2019-01-11T02:10:30.911Z,75.29
2019-01-11T02:13:00.630Z,74.73
2019-01-11T02:15:30.248Z,75.73
2019-01-11T02:17:59.970Z,76.18
2019-01-11T02:20:29.566Z,75.52
2019-01-11T02:22:58.911Z,75.71
2019-01-11T02:25:28.580Z,76.53
2019-01-11T02:27:57.906Z,76.35
2019-01-11T02:30:27.307Z,76.51
2019-01-11T02:32:56.631Z,76.18
2019-01-11T02:35:25.985Z,76.34
2019-01-11T02:37:55.316Z,76.19
2019-01-11T02:40:25.001Z,77.79
2019-01-11T02:42:54.693Z,76.06
2019-01-11T02:45:24.294Z,76.47
2019-01-11T02:47:53.901Z,75.91
2019-01-11T02:50:23.227Z,75.44
2019-01-11T02:52:52.913Z,76.70
2019-01-11T02:55:22.284Z,75.63
2019-01-11T02:57:51.595Z,76.69
2019-01-11T03:00:22.096Z,75.62
2019-01-11T03:02:54.458Z,76.30
2019-01-11T03:05:23.767Z,75.81
2019-01-11T03:07:53.069Z,74.70
2019-01-11T03:10:22.712Z,74.72
2019-01-11T03:12:52.116Z,75.48
2019-01-11T03:15:21.445Z,76.07
2019-01-11T03:17:52.162Z,76.12
2019-01-11T03:20:26.189Z,76.13
2019-01-11T03:22:55.603Z,75.95
2019-01-11T03:25:24.946Z,76.12
2019-01-11T03:27:55.543Z,75.94
2019-01-11T03:30:24.890Z,75.02
2019-01-11T03:32:54.243Z,74.13
2019-01-11T03:35:26.307Z,74.00
2019-01-11T03:37:55.677Z,73.54
2019-01-11T03:40:25.186Z,73.53
2019-01-11T03:42:55.196Z,73.09
2019-01-11T03:45:26.343Z,72.84
2019-01-11T03:47:56.169Z,72.08
2019-01-11T03:50:26.140Z,72.42
2019-01-11T03:52:55.782Z,72.32
2019-01-11T03:55:27.851Z,71.76
2019-01-11T03:57:58.834Z,71.75
2019-01-11T04:00:28.171Z,72.16
2019-01-11T04:02:57.482Z,71.37
2019-01-11T04:05:27.103Z,71.97
2019-01-11T04:07:57.114Z,72.10
2019-01-11T04:10:26.450Z,71.20
2019-01-11T04:12:55.769Z,71.42
2019-01-11T04:15:25.363Z,71.60
2019-01-11T04:18:13.068Z,73.23
2019-01-11T04:20:42.659Z,72.31
2019-01-11T04:23:12.005Z,72.02
2019-01-11T04:25:42.575Z,72.36
2019-01-11T04:28:11.938Z,70.47
2019-01-11T04:30:41.270Z,70.37
2019-01-11T04:33:10.604Z,70.64
2019-01-11T04:35:41.334Z,71.18
2019-01-11T04:38:10.707Z,70.65
2019-01-11T04:40:40.048Z,70.66
2019-01-11T04:43:09.783Z,70.85
2019-01-11T04:45:39.122Z,71.09
2019-01-11T04:48:08.517Z,70.60
2019-01-11T04:50:38.185Z,70.51
2019-01-11T04:53:07.798Z,70.42
2019-01-11T04:55:37.530Z,71.45
2019-01-11T04:58:06.923Z,71.49
2019-01-11T05:00:36.607Z,71.40
2019-01-11T05:03:06.790Z,70.53
2019-01-11T05:05:37.566Z,71.29
2019-01-11T05:08:07.178Z,69.77
2019-01-11T05:10:36.862Z,70.44
2019-01-11T05:13:15.548Z,70.45
2019-01-11T05:15:45.293Z,69.31
2019-01-11T05:18:14.630Z,69.50
2019-01-11T05:20:43.947Z,69.96
2019-01-11T05:23:13.297Z,69.75
2019-01-11T05:25:42.887Z,70.43
2019-01-11T05:28:12.609Z,69.50
2019-01-11T05:30:42.319Z,69.37
2019-01-11T05:33:11.658Z,71.96
2019-01-11T05:35:40.977Z,74.57
2019-01-11T05:38:10.582Z,68.98
2019-01-11T05:40:41.979Z,69.74
2019-01-11T05:43:11.708Z,68.63
2019-01-11T05:45:41.026Z,69.55
2019-01-11T05:48:11.893Z,69.59
2019-01-11T05:50:41.301Z,69.72
2019-01-11T05:53:10.628Z,69.16
2019-01-11T05:55:53.054Z,68.90
2019-01-11T05:58:22.185Z,69.43
2019-01-11T06:00:51.549Z,69.05
2019-01-11T06:03:21.289Z,69.34
2019-01-11T06:05:51.097Z,69.54
2019-01-11T06:08:22.939Z,69.41
2019-01-11T06:10:52.344Z,69.35
2019-01-11T06:13:23.898Z,69.11
2019-01-11T06:15:56.280Z,69.15
2019-01-11T06:18:25.982Z,69.80
2019-01-11T06:20:55.611Z,70.26
2019-01-11T06:23:25.312Z,70.04
2019-01-11T06:25:54.950Z,69.55
2019-01-11T06:28:24.685Z,69.61
2019-01-11T06:30:54.428Z,69.95
2019-01-11T06:33:24.234Z,69.46
2019-01-11T06:35:53.559Z,69.23
2019-01-11T06:38:25.901Z,69.03
2019-01-11T06:40:55.429Z,69.70
2019-01-11T06:43:25.115Z,70.22
2019-01-11T06:45:54.470Z,70.37
2019-01-11T06:48:25.793Z,70.73
2019-01-11T06:50:58.158Z,70.73
2019-01-11T06:53:27.667Z,71.69
2019-01-11T06:55:57.380Z,71.28
2019-01-11T06:58:30.111Z,70.95
2019-01-11T07:00:59.740Z,70.26
2019-01-11T07:03:29.634Z,70.59
2019-01-11T07:05:59.366Z,70.77
2019-01-11T07:08:29.641Z,70.71
2019-01-11T07:10:59.867Z,70.85
2019-01-11T07:13:29.513Z,71.02
2019-01-11T07:15:59.115Z,71.14
2019-01-11T07:18:28.839Z,70.78
2019-01-11T07:20:58.150Z,71.05
2019-01-11T07:23:27.750Z,71.62
2019-01-11T07:25:57.162Z,71.53
2019-01-11T07:28:26.485Z,71.82
2019-01-11T07:31:01.066Z,71.25
2019-01-11T07:33:30.391Z,71.19
2019-01-11T07:36:07.894Z,71.69
2019-01-11T07:38:37.914Z,71.69
2019-01-11T07:41:07.549Z,71.85
2019-01-11T07:43:38.044Z,72.47
2019-01-11T07:46:09.602Z,73.92
2019-01-11T07:48:43.321Z,74.05
2019-01-11T07:51:12.669Z,74.83
2019-01-11T07:53:42.013Z,75.90
2019-01-11T07:56:11.674Z,75.49
2019-01-11T07:58:44.483Z,75.31
2019-01-11T08:01:14.194Z,75.76
2019-01-11T08:03:49.414Z,75.88
2019-01-11T08:06:18.812Z,75.41
2019-01-11T08:08:48.486Z,75.84
2019-01-11T08:11:20.380Z,74.99
2019-01-11T08:13:51.162Z,75.05
2019-01-11T08:16:20.933Z,74.13
2019-01-11T08:18:51.404Z,75.63
2019-01-11T08:21:21.024Z,75.35
2019-01-11T08:23:50.670Z,76.57
2019-01-11T08:26:20.100Z,75.45
2019-01-11T08:28:49.477Z,75.10
2019-01-11T08:31:18.814Z,75.61
2019-01-11T08:33:48.134Z,75.32
2019-01-11T08:36:17.444Z,76.16
2019-01-11T08:38:46.780Z,76.34
2019-01-11T08:41:16.116Z,75.99
2019-01-11T08:43:45.473Z,76.14
2019-01-11T08:46:15.216Z,75.99
2019-01-11T08:48:45.431Z,76.60
2019-01-11T08:51:14.864Z,76.24
2019-01-11T08:53:46.257Z,76.27
2019-01-11T08:56:15.603Z,76.12
2019-01-11T08:58:46.374Z,75.78
2019-01-11T09:01:15.804Z,75.29
2019-01-11T09:03:45.844Z,75.98
2019-01-11T09:06:16.218Z,75.34
2019-01-11T09:08:46.942Z,74.74
2019-01-11T09:11:16.815Z,75.24
2019-01-11T09:13:47.060Z,75.20
2019-01-11T09:16:20.630Z,75.30
2019-01-11T09:18:47.826Z,75.29
2019-01-11T09:21:19.557Z,75.00
2019-01-11T09:23:49.193Z,73.64
2019-01-11T09:26:19.137Z,74.08
2019-01-11T09:28:50.133Z,73.94
2019-01-11T09:31:20.437Z,74.19
2019-01-11T09:33:49.765Z,74.37
2019-01-11T09:36:19.438Z,74.41
2019-01-11T09:38:49.137Z,74.64
2019-01-11T09:41:18.979Z,74.59
2019-01-11T09:43:48.335Z,74.61
2019-01-11T09:46:17.917Z,74.33
2019-01-11T09:48:47.263Z,74.92
2019-01-11T09:51:16.574Z,74.64
2019-01-11T09:53:45.921Z,73.73
2019-01-11T09:56:15.821Z,74.86
2019-01-11T09:58:45.149Z,74.45
2019-01-11T10:01:15.228Z,74.75
2019-01-11T10:03:45.755Z,74.92
2019-01-11T10:06:15.774Z,74.97
2019-01-11T10:08:45.395Z,75.09
2019-01-11T10:11:14.999Z,75.44
2019-01-11T10:13:44.320Z,75.33
2019-01-11T10:16:13.887Z,75.41
2019-01-11T10:18:43.227Z,75.95
2019-01-11T10:21:12.563Z,76.05
2019-01-11T10:23:42.165Z,76.41
2019-01-11T10:26:12.068Z,77.89
2019-01-11T10:28:41.401Z,78.15
2019-01-11T10:31:10.716Z,77.73
2019-01-11T10:33:41.275Z,77.78
2019-01-11T10:36:10.608Z,77.25
2019-01-11T10:38:39.939Z,78.97
2019-01-11T10:41:10.129Z,78.43
2019-01-11T10:43:39.488Z,79.61
2019-01-11T10:46:10.997Z,79.08
2019-01-11T10:48:40.946Z,78.53
2019-01-11T10:51:11.834Z,79.44
2019-01-11T10:53:41.312Z,79.61
2019-01-11T10:56:10.630Z,79.82
2019-01-11T10:58:39.984Z,80.15
2019-01-11T11:01:09.732Z,79.21
2019-01-11T11:03:39.116Z,78.69
2019-01-11T11:06:08.468Z,78.15
2019-01-11T11:08:37.975Z,78.58
2019-01-11T11:11:07.321Z,79.59
2019-01-11T11:13:38.439Z,80.09
2019-01-11T11:16:07.768Z,79.62
2019-01-11T11:18:37.088Z,79.43
2019-01-11T11:21:07.031Z,78.89
2019-01-11T11:23:36.355Z,78.96
2019-01-11T11:26:05.736Z,79.17
2019-01-11T11:28:35.102Z,79.45
2019-01-11T11:31:04.830Z,79.02
2019-01-11T11:33:34.528Z,79.10
2019-01-11T11:36:04.208Z,78.98
2019-01-11T11:38:33.764Z,79.06
2019-01-11T11:41:03.535Z,78.44
2019-01-11T11:43:32.849Z,78.91
2019-01-11T11:46:04.371Z,78.55
2019-01-11T11:48:33.699Z,78.33
2019-01-11T11:51:03.071Z,78.34
2019-01-11T11:53:33.172Z,78.48
2019-01-11T11:56:02.481Z,78.21
2019-01-11T11:58:32.107Z,78.02
2019-01-11T12:01:01.407Z,77.66
2019-01-11T12:03:30.867Z,77.42
2019-01-11T12:06:00.186Z,77.82
2019-01-11T12:08:29.772Z,77.92
2019-01-11T12:10:59.532Z,78.18
2019-01-11T12:13:28.877Z,77.78
2019-01-11T12:15:58.462Z,77.81
2019-01-11T12:18:28.084Z,77.14
2019-01-11T12:20:57.754Z,78.10
2019-01-11T12:23:27.359Z,77.43
2019-01-11T12:25:57.404Z,78.55
2019-01-11T12:28:26.782Z,79.06
2019-01-11T12:30:57.557Z,79.58
2019-01-11T12:33:27.222Z,79.38
2019-01-11T12:35:56.564Z,79.64
2019-01-11T12:38:26.343Z,79.67
2019-01-11T12:40:55.967Z,79.73
2019-01-11T12:43:25.307Z,80.35
2019-01-11T12:45:55.041Z,80.06
2019-01-11T12:48:24.624Z,79.98
2019-01-11T12:50:53.957Z,79.87
2019-01-11T12:53:23.384Z,80.57
2019-01-11T12:55:52.951Z,80.81
2019-01-11T12:58:22.621Z,81.32
2019-01-11T13:00:52.233Z,81.12
2019-01-11T13:03:22.074Z,81.13
2019-01-11T13:05:51.408Z,81.79
2019-01-11T13:08:20.770Z,81.04
2019-01-11T13:10:52.183Z,80.70
2019-01-11T13:13:22.985Z,80.05
2019-01-11T13:15:53.626Z,80.00
2019-01-11T13:18:24.721Z,79.63
2019-01-11T13:20:54.311Z,79.98
2019-01-11T13:23:24.197Z,79.56
2019-01-11T13:25:53.526Z,79.23
2019-01-11T13:28:27.368Z,80.14
2019-01-11T13:30:56.746Z,79.88
2019-01-11T13:33:26.320Z,80.27
2019-01-11T13:35:56.475Z,79.83
2019-01-11T13:38:27.603Z,79.90
2019-01-11T13:40:57.244Z,79.71
2019-01-11T13:43:26.586Z,80.02
2019-01-11T13:45:56.048Z,80.17
2019-01-11T13:48:25.409Z,80.39
2019-01-11T13:50:56.301Z,81.18
2019-01-11T13:53:25.919Z,81.48
2019-01-11T13:55:55.668Z,82.10
2019-01-11T13:58:25.333Z,81.94
2019-01-11T14:01:00.723Z,82.49
2019-01-11T14:03:30.412Z,82.37
2019-01-11T14:06:02.633Z,81.89
2019-01-11T14:08:32.053Z,82.20
2019-01-11T14:11:02.284Z,81.81
2019-01-11T14:13:31.783Z,81.04
2019-01-11T14:16:01.093Z,81.96
2019-01-11T14:18:31.896Z,81.98
2019-01-11T14:21:01.221Z,82.03
2019-01-11T14:23:34.000Z,82.06
2019-01-11T14:26:03.596Z,82.73
2019-01-11T14:28:33.196Z,81.91
2019-01-11T14:31:02.522Z,82.50
2019-01-11T14:33:32.145Z,82.88
2019-01-11T14:36:01.870Z,83.30
2019-01-11T14:38:31.514Z,83.64
2019-01-11T14:41:05.887Z,83.89
2019-01-11T14:43:35.182Z,84.03
2019-01-11T14:46:04.544Z,83.44
2019-01-11T14:48:41.027Z,83.50
2019-01-11T14:51:15.092Z,83.33
2019-01-11T14:53:47.417Z,83.65
2019-01-11T14:56:21.224Z,83.84
2019-01-11T14:58:50.557Z,84.12
2019-01-11T15:01:25.464Z,83.81
2019-01-11T15:03:54.800Z,83.59
2019-01-11T15:06:24.498Z,82.78
2019-01-11T15:08:54.665Z,82.90
2019-01-11T15:11:24.410Z,82.40
2019-01-11T15:13:54.017Z,82.32
2019-01-11T15:16:24.871Z,82.32
2019-01-11T15:18:54.217Z,82.21
2019-01-11T15:21:25.095Z,82.08
2019-01-11T15:23:54.419Z,81.55
2019-01-11T15:26:23.768Z,82.26
2019-01-11T15:28:53.424Z,81.85
2019-01-11T15:31:23.120Z,81.72
2019-01-11T15:33:57.585Z,81.87
2019-01-11T15:36:27.652Z,82.11
2019-01-11T15:38:56.962Z,81.12
2019-01-11T15:41:26.573Z,81.43
2019-01-11T15:43:58.961Z,81.28
2019-01-11T15:46:28.546Z,81.52
2019-01-11T15:48:58.265Z,81.95
2019-01-11T15:51:27.650Z,81.96
2019-01-11T15:53:57.478Z,81.89
2019-01-11T15:56:28.295Z,81.99
2019-01-11T15:58:57.700Z,81.98
2019-01-11T16:01:32.062Z,82.85
2019-01-11T16:04:06.456Z,83.83
2019-01-11T16:06:37.701Z,84.07
2019-01-11T16:09:17.560Z,84.52
2019-01-11T16:12:10.421Z,84.28
2019-01-11T16:14:50.677Z,84.96
2019-01-11T16:17:27.962Z,84.95
2019-01-11T16:19:58.376Z,84.86
2019-01-11T16:22:28.120Z,84.37
2019-01-11T16:24:57.530Z,85.38
2019-01-11T16:27:28.108Z,85.45
2019-01-11T16:29:57.830Z,85.37
2019-01-11T16:32:27.545Z,85.63
2019-01-11T16:34:56.970Z,85.73
2019-01-11T16:37:26.409Z,85.81
2019-01-11T16:39:57.414Z,86.00
2019-01-11T16:42:26.802Z,86.02
2019-01-11T16:44:56.117Z,86.07
2019-01-11T16:47:25.441Z,86.15
2019-01-11T16:49:54.776Z,86.03
2019-01-11T16:52:24.105Z,85.49
2019-01-11T16:54:53.797Z,84.93
2019-01-11T16:57:24.971Z,85.27
2019-01-11T16:59:54.267Z,85.26
2019-01-11T17:02:23.638Z,85.39
2019-01-11T17:04:53.114Z,85.12
2019-01-11T17:07:22.433Z,85.05
2019-01-11T17:09:52.068Z,84.81
2019-01-11T17:12:21.661Z,84.74
2019-01-11T17:14:50.992Z,84.83
2019-01-11T17:17:20.725Z,84.38
2019-01-11T17:19:50.175Z,84.34
2019-01-11T17:22:19.984Z,84.01
2019-01-11T17:24:49.594Z,83.83
2019-01-11T17:27:18.927Z,83.16
2019-01-11T17:29:48.504Z,83.21
2019-01-11T17:32:19.538Z,83.02
2019-01-11T17:34:48.849Z,82.62
2019-01-11T17:37:18.162Z,82.67
2019-01-11T17:39:47.536Z,82.63
2019-01-11T17:42:16.961Z,82.62
2019-01-11T17:44:46.598Z,82.56
2019-01-11T17:47:16.425Z,82.88
2019-01-11T17:49:47.925Z,82.91
2019-01-11T17:52:17.748Z,82.86
2019-01-11T17:54:47.094Z,82.84
2019-01-11T17:57:16.463Z,83.08
2019-01-11T17:59:46.168Z,83.08
2019-01-11T18:02:17.086Z,83.65
2019-01-11T18:04:46.727Z,83.89
2019-01-11T18:07:16.417Z,83.71
2019-01-11T18:09:45.786Z,83.71
2019-01-11T18:12:19.978Z,83.68
2019-01-11T18:14:47.583Z,83.58
2019-01-11T18:17:17.190Z,83.17
2019-01-11T18:19:47.555Z,83.24
2019-01-11T18:22:17.220Z,83.03
2019-01-11T18:24:46.529Z,82.63
2019-01-11T18:27:15.907Z,82.46
2019-01-11T18:29:45.456Z,82.63
2019-01-11T18:32:16.532Z,82.77
2019-01-11T18:34:46.413Z,83.10
2019-01-11T18:37:16.006Z,83.55
2019-01-11T18:39:45.425Z,83.93
2019-01-11T18:42:15.237Z,83.91
2019-01-11T18:44:46.124Z,83.65
2019-01-11T18:47:15.462Z,84.40
2019-01-11T18:49:45.192Z,84.85
2019-01-11T18:52:14.919Z,84.91
2019-01-11T18:54:44.568Z,84.70
2019-01-11T18:57:14.262Z,84.36
2019-01-11T18:59:44.648Z,84.94
2019-01-11T19:02:14.034Z,84.60
2019-01-11T19:04:43.801Z,84.55
2019-01-11T19:07:13.158Z,84.27
2019-01-11T19:09:42.594Z,84.71
2019-01-11T19:12:11.933Z,84.63
2019-01-11T19:14:41.263Z,84.59
2019-01-11T19:17:10.693Z,84.57
2019-01-11T19:19:40.328Z,84.47
2019-01-11T19:22:09.647Z,84.91
2019-01-11T19:24:39.617Z,84.80
2019-01-11T19:27:08.976Z,85.03
2019-01-11T19:29:38.336Z,84.91
2019-01-11T19:32:08.099Z,85.05
2019-01-11T19:34:37.819Z,85.40
2019-01-11T19:37:07.181Z,84.54
2019-01-11T19:39:36.918Z,84.76
2019-01-11T19:42:06.264Z,84.76
2019-01-11T19:44:35.700Z,84.82
2019-01-11T19:47:05.435Z,84.34
2019-01-11T19:49:34.810Z,84.62
2019-01-11T19:52:04.145Z,84.42
2019-01-11T19:54:33.763Z,84.53
2019-01-11T19:57:03.083Z,84.72
2019-01-11T19:59:32.418Z,84.71
2019-01-11T20:02:01.762Z,85.06
2019-01-11T20:04:33.062Z,85.20
2019-01-11T20:07:02.728Z,85.29
2019-01-11T20:09:32.326Z,85.52
2019-01-11T20:12:02.334Z,85.50
2019-01-11T20:14:32.054Z,84.70
2019-01-11T20:17:01.784Z,84.79
2019-01-11T20:19:31.077Z,84.68
2019-01-11T20:22:00.499Z,84.62
2019-01-11T20:24:29.837Z,84.46
2019-01-11T20:26:59.557Z,84.34
2019-01-11T20:29:29.370Z,84.09
2019-01-11T20:31:59.668Z,84.16
2019-01-11T20:34:29.406Z,84.36
2019-01-11T20:37:05.196Z,84.24
2019-01-11T20:39:34.859Z,83.95
2019-01-11T20:42:05.961Z,84.22
2019-01-11T20:44:35.608Z,83.87
2019-01-11T20:47:05.341Z,84.07
2019-01-11T20:49:37.629Z,84.55
2019-01-11T20:52:07.321Z,84.57
2019-01-11T20:54:37.014Z,84.47
2019-01-11T20:57:07.920Z,83.92
2019-01-11T20:59:37.674Z,84.32
2019-01-11T21:02:07.263Z,84.42
2019-01-11T21:04:36.985Z,84.85
2019-01-11T21:07:08.523Z,84.16
2019-01-11T21:09:38.243Z,83.81
2019-01-11T21:12:07.875Z,84.08
2019-01-11T21:14:37.213Z,83.51
2019-01-11T21:17:06.556Z,83.93
2019-01-11T21:19:36.161Z,83.79
2019-01-11T21:22:05.896Z,83.50
2019-01-11T21:24:35.250Z,83.37
2019-01-11T21:27:04.879Z,83.71
2019-01-11T21:29:34.237Z,84.01
2019-01-11T21:32:03.888Z,84.09
2019-01-11T21:34:33.523Z,84.41
2019-01-11T21:37:03.199Z,84.14
2019-01-11T21:39:32.792Z,84.44
2019-01-11T21:42:02.147Z,84.61
2019-01-11T21:44:31.831Z,84.75
2019-01-11T21:47:01.431Z,84.53
2019-01-11T21:49:30.775Z,84.63
2019-01-11T21:52:00.128Z,84.09
2019-01-11T21:54:29.749Z,84.17
2019-01-11T21:56:59.500Z,84.02
2019-01-11T21:59:29.277Z,84.03
2019-01-11T22:01:59.180Z,84.63
2019-01-11T22:04:28.630Z,84.36
2019-01-11T22:06:58.414Z,84.33
2019-01-11T22:09:28.113Z,84.19
2019-01-11T22:11:57.827Z,84.21
2019-01-11T22:14:27.757Z,83.83
2019-01-11T22:16:57.549Z,83.56
2019-01-11T22:19:27.259Z,83.15
2019-01-11T22:21:56.619Z,83.32
2019-01-11T22:24:26.369Z,83.17
2019-01-11T22:26:57.537Z,82.75
2019-01-11T22:29:30.398Z,82.37
2019-01-11T22:31:59.988Z,82.38
2019-01-11T22:34:29.322Z,82.40
2019-01-11T22:37:02.100Z,82.34
2019-01-11T22:39:34.016Z,81.92
2019-01-11T22:42:05.335Z,81.72
2019-01-11T22:44:37.887Z,81.55
2019-01-11T22:47:10.849Z,81.53
2019-01-11T22:49:42.466Z,81.58
2019-01-11T22:52:14.653Z,81.96
2019-01-11T22:54:46.314Z,81.86
2019-01-11T22:57:16.593Z,81.57
2019-01-11T22:59:48.639Z,81.61
2019-01-11T23:02:22.934Z,81.65
2019-01-11T23:04:52.250Z,81.80
2019-01-11T23:07:25.771Z,82.25
2019-01-11T23:09:55.280Z,81.96
2019-01-11T23:12:38.247Z,81.96
2019-01-11T23:15:13.249Z,82.04
2019-01-11T23:17:47.692Z,82.17
2019-01-11T23:20:17.344Z,82.33
2019-01-11T23:22:46.834Z,82.16
2019-01-11T23:25:16.142Z,82.09
2019-01-11T23:27:45.974Z,81.91
2019-01-11T23:30:18.135Z,81.95
2019-01-11T23:32:48.676Z,81.62
2019-01-11T23:35:18.370Z,81.59
2019-01-11T23:37:49.561Z,81.42
2019-01-11T23:40:20.850Z,81.25
2019-01-11T23:42:50.475Z,81.57
2019-01-11T23:45:21.241Z,81.39
2019-01-11T23:47:50.844Z,81.19
2019-01-11T23:50:20.499Z,80.93
2019-01-11T23:52:50.220Z,81.51
2019-01-11T23:55:19.530Z,81.38
2019-01-11T23:57:49.817Z,81.44
